Time;durP1;ratioP1;P1;durP2;ratioP2;P2;SDS_P1;SDS_P2;PMS_P1;PMS_P2;Temp;Humidity;BMP_temperature;BMP_pressure;BME280_temperature;BME280_humidity;BME280_pressure;Samples;Min_cycle;Max_cycle;Signal;HPM_P1;HPM_P2
2021/08/13 00:01:35;;;;;;;21.98;13.23;;;;;;;21.37;75.28;96676.44;5088979;28;20048;-68
2021/08/13 00:04:02;;;;;;;20.50;13.15;;;;;;;21.40;75.30;96661.78;5090365;28;20044;-70
2021/08/13 00:06:28;;;;;;;15.38;11.90;;;;;;;21.41;75.27;96660.66;5092130;28;20047;-68
2021/08/13 00:08:56;;;;;;;20.77;12.43;;;;;;;21.45;75.43;96664.22;5089974;28;20040;-67
2021/08/13 00:11:24;;;;;;;22.80;13.13;;;;;;;21.41;75.17;96657.88;5093566;28;20044;-68
2021/08/13 00:13:50;;;;;;;21.63;13.15;;;;;;;21.38;75.00;96647.53;5093943;28;20044;-67
2021/08/13 00:16:17;;;;;;;23.33;13.52;;;;;;;21.39;75.19;96654.66;5093296;28;20059;-68
2021/08/13 00:18:43;;;;;;;17.17;12.73;;;;;;;21.34;75.03;96646.69;5093928;28;20616;-68
2021/08/13 00:21:10;;;;;;;19.42;13.50;;;;;;;21.30;75.24;96640.34;5093311;28;20056;-68
2021/08/13 00:23:37;;;;;;;20.17;12.55;;;;;;;21.31;75.46;96637.19;5093602;28;20134;-67
2021/08/13 00:26:05;;;;;;;20.50;12.55;;;;;;;21.32;75.49;96635.22;5093185;28;20040;-68
2021/08/13 00:28:32;;;;;;;17.92;11.95;;;;;;;21.31;75.52;96630.88;5093828;28;20047;-68
2021/08/13 00:30:58;;;;;;;18.92;12.10;;;;;;;21.32;75.50;96632.44;5093447;28;20044;-67
2021/08/13 00:33:24;;;;;;;18.63;12.40;;;;;;;21.31;75.34;96628.88;5091982;28;20043;-68
2021/08/13 00:35:51;;;;;;;17.02;12.30;;;;;;;21.28;74.82;96626.84;5093764;28;20039;-67
2021/08/13 00:38:17;;;;;;;15.18;11.70;;;;;;;21.23;74.54;96624.41;5092191;28;20055;-68
2021/08/13 00:40:44;;;;;;;17.70;12.68;;;;;;;21.17;74.86;96620.41;5093368;28;20479;-68
2021/08/13 00:43:11;;;;;;;20.63;12.20;;;;;;;21.16;75.15;96626.34;5092507;28;20499;-68
2021/08/13 00:45:38;;;;;;;17.73;11.95;;;;;;;21.13;75.16;96624.31;5093088;28;20036;-68
2021/08/13 00:48:05;;;;;;;18.67;12.00;;;;;;;21.13;75.24;96632.63;5092831;28;20047;-68
2021/08/13 00:50:31;;;;;;;15.43;11.52;;;;;;;21.12;75.43;96623.50;5093305;28;20211;-68
2021/08/13 00:52:59;;;;;;;16.10;11.55;;;;;;;21.10;75.32;96626.66;5093141;28;20047;-68
2021/08/13 00:55:26;;;;;;;15.10;11.38;;;;;;;21.14;75.13;96623.13;5092660;28;20048;-68
2021/08/13 00:57:52;;;;;;;16.75;12.07;;;;;;;21.15;75.11;96624.75;5093002;28;20074;-67
2021/08/13 01:00:20;;;;;;;16.90;11.27;;;;;;;21.15;74.81;96627.50;5090400;28;20044;-68
2021/08/13 01:02:47;;;;;;;12.55;10.98;;;;;;;21.16;74.80;96624.34;5092667;28;20055;-68
2021/08/13 01:05:14;;;;;;;16.85;11.32;;;;;;;21.20;73.76;96629.94;5092454;28;20047;-68
2021/08/13 01:07:41;;;;;;;13.40;10.88;;;;;;;21.17;73.97;96633.44;5092352;28;20380;-68
2021/08/13 01:10:08;;;;;;;17.60;12.20;;;;;;;21.13;74.04;96636.19;5092384;28;20044;-68
2021/08/13 01:12:42;;;;;;;12.82;10.02;;;;;;;21.06;74.13;96642.44;5093134;28;20051;-67
2021/08/13 01:15:11;;;;;;;18.42;11.23;;;;;;;21.08;73.67;96644.81;5092301;28;20044;-68
2021/08/13 01:17:45;;;;;;;13.50;10.52;;;;;;;21.06;73.88;96647.97;5092721;28;20051;-67
2021/08/13 01:20:24;;;;;;;16.98;11.88;;;;;;;21.00;73.92;96643.97;5092269;28;20051;-68
2021/08/13 01:22:58;;;;;;;17.40;12.73;;;;;;;20.97;74.62;96650.25;5092444;28;20048;-67
2021/08/13 01:25:31;;;;;;;15.15;11.15;;;;;;;20.98;74.93;96651.84;5092153;28;20048;-67
2021/08/13 01:28:04;;;;;;;15.23;11.48;;;;;;;21.03;74.24;96653.47;5092647;28;20048;-67
2021/08/13 01:30:35;;;;;;;15.43;11.25;;;;;;;21.03;74.46;96659.81;5092252;28;20040;-67
2021/08/13 01:33:08;;;;;;;18.27;11.90;;;;;;;21.02;74.51;96668.50;5092051;28;20044;-68
2021/08/13 01:35:39;;;;;;;17.10;12.15;;;;;;;21.00;74.81;96660.56;5092491;28;20066;-68
2021/08/13 01:38:09;;;;;;;17.27;11.95;;;;;;;20.96;75.39;96668.03;5091341;28;20055;-68
2021/08/13 01:40:39;;;;;;;13.45;11.95;;;;;;;20.94;75.52;96678.72;5092273;28;20044;-68
2021/08/13 01:43:06;;;;;;;16.73;12.18;;;;;;;20.94;75.31;96670.41;5091460;28;20043;-67
2021/08/13 01:45:35;;;;;;;16.90;12.73;;;;;;;20.89;75.18;96686.53;5092146;28;20048;-67
2021/08/13 01:48:06;;;;;;;17.73;12.43;;;;;;;20.92;75.02;96692.09;5091435;28;20040;-69
2021/08/13 01:50:32;;;;;;;15.95;12.07;;;;;;;20.97;74.71;96705.63;5092008;28;20047;-66
2021/08/13 01:53:01;;;;;;;15.65;12.15;;;;;;;20.99;74.78;96713.56;5091948;28;20040;-67
2021/08/13 01:55:29;;;;;;;14.75;11.52;;;;;;;20.92;75.17;96724.53;5088136;28;20036;-68
2021/08/13 01:57:56;;;;;;;18.55;12.27;;;;;;;20.84;75.75;96731.97;5087508;28;20047;-67
2021/08/13 02:00:24;;;;;;;20.30;12.63;;;;;;;20.76;75.97;96755.16;5091516;28;20047;-67
2021/08/13 02:02:52;;;;;;;18.75;12.57;;;;;;;20.70;76.45;96756.66;5083651;28;20044;-68
2021/08/13 02:05:23;;;;;;;17.70;13.43;;;;;;;20.56;76.91;96746.97;5082892;28;20049;-67
2021/08/13 02:07:50;;;;;;;17.20;12.85;;;;;;;20.52;77.23;96732.31;5089931;28;20442;-67
2021/08/13 02:10:18;;;;;;;22.25;14.45;;;;;;;20.52;76.85;96731.53;5091237;28;20055;-68
2021/08/13 02:12:44;;;;;;;16.70;12.93;;;;;;;20.51;77.01;96718.84;5091927;28;20122;-68
2021/08/13 02:15:12;;;;;;;15.00;13.13;;;;;;;20.51;77.22;96710.53;5090554;28;20533;-68
2021/08/13 02:17:42;;;;;;;17.88;12.90;;;;;;;20.49;77.33;96712.91;5091621;28;20513;-67
2021/08/13 02:20:11;;;;;;;18.13;13.55;;;;;;;20.52;77.53;96712.97;5091157;28;20044;-68
2021/08/13 02:22:39;;;;;;;17.65;12.80;;;;;;;20.52;76.81;96706.63;5091446;28;20044;-67
2021/08/13 02:25:06;;;;;;;18.65;13.05;;;;;;;20.49;76.92;96704.59;5091119;28;20032;-68
2021/08/13 02:27:33;;;;;;;16.55;13.02;;;;;;;20.45;76.97;96701.75;5091488;28;20044;-67
2021/08/13 02:30:00;;;;;;;18.98;13.38;;;;;;;20.46;77.49;96697.81;5091013;28;20040;-67
2021/08/13 02:32:29;;;;;;;15.57;12.48;;;;;;;20.45;77.61;96701.75;5090775;28;20040;-68
2021/08/13 02:34:56;;;;;;;15.93;13.13;;;;;;;20.46;77.55;96700.59;5091584;28;20032;-68
2021/08/13 02:37:27;;;;;;;18.88;13.07;;;;;;;20.52;77.31;96712.97;5090288;28;20055;-68
2021/08/13 02:39:57;;;;;;;16.75;13.10;;;;;;;20.51;76.78;96711.34;5091385;28;20044;-67
2021/08/13 02:42:30;;;;;;;16.98;12.93;;;;;;;20.52;76.81;96718.50;5090881;28;20044;-67
2021/08/13 02:45:00;;;;;;;21.10;13.15;;;;;;;20.50;77.05;96718.03;5091237;28;20040;-67
2021/08/13 02:47:29;;;;;;;18.88;12.90;;;;;;;20.46;77.35;96717.19;5090625;28;20494;-67
2021/08/13 02:50:01;;;;;;;17.73;12.95;;;;;;;20.43;77.07;96711.59;5091233;28;20068;-67
2021/08/13 02:52:30;;;;;;;15.90;12.07;;;;;;;20.43;77.29;96704.09;5090698;28;20044;-67
2021/08/13 02:55:03;;;;;;;18.58;13.63;;;;;;;20.40;77.01;96695.75;5091058;28;20495;-67
2021/08/13 02:57:32;;;;;;;18.55;12.35;;;;;;;20.33;77.29;96696.44;5091093;28;20406;-67
2021/08/13 03:00:01;;;;;;;18.95;12.45;;;;;;;20.30;77.57;96688.88;5091219;28;20044;-67
2021/08/13 03:02:29;;;;;;;17.50;12.43;;;;;;;20.25;77.33;96705.78;5090652;28;20047;-67
2021/08/13 03:04:57;;;;;;;20.80;13.45;;;;;;;20.22;77.65;96709.31;5090997;28;20040;-67
2021/08/13 03:07:25;;;;;;;20.05;13.45;;;;;;;20.19;77.86;96701.75;5089977;28;20051;-68
2021/08/13 03:09:52;;;;;;;18.85;13.15;;;;;;;20.18;77.94;96714.00;5090802;28;20047;-67
2021/08/13 03:12:20;;;;;;;18.92;14.07;;;;;;;20.19;77.97;96710.03;5090296;28;20506;-67
2021/08/13 03:14:48;;;;;;;17.17;12.73;;;;;;;20.17;77.55;96706.88;5090521;28;20042;-67
2021/08/13 03:17:16;;;;;;;17.17;12.60;;;;;;;20.15;77.51;96706.41;5090419;28;20044;-67
2021/08/13 03:19:43;;;;;;;17.92;13.30;;;;;;;20.15;77.52;96700.91;5090212;28;20414;-67
2021/08/13 03:22:10;;;;;;;19.00;12.35;;;;;;;20.14;77.87;96702.06;5088651;28;20059;-67
2021/08/13 03:24:38;;;;;;;22.75;12.82;;;;;;;20.12;77.65;96704.41;5090613;28;20044;-67
2021/08/13 03:27:04;;;;;;;16.98;13.00;;;;;;;20.11;77.61;96702.84;5094128;28;20044;-67
2021/08/13 03:29:32;;;;;;;20.40;13.32;;;;;;;20.06;77.52;96706.72;5095016;28;20047;-67
2021/08/13 03:31:59;;;;;;;17.70;12.55;;;;;;;20.04;78.09;96717.31;5095010;28;20044;-67
2021/08/13 03:34:26;;;;;;;16.83;12.85;;;;;;;20.07;78.07;96719.34;5094368;28;20036;-67
2021/08/13 03:36:53;;;;;;;15.13;12.38;;;;;;;20.11;77.63;96724.94;5094614;28;20037;-67
2021/08/13 03:39:19;;;;;;;18.00;13.15;;;;;;;20.12;77.68;96726.53;5093843;28;20048;-67
2021/08/13 03:41:46;;;;;;;19.98;12.85;;;;;;;20.08;77.60;96721.75;5094652;28;20047;-67
2021/08/13 03:44:12;;;;;;;16.25;12.25;;;;;;;20.06;77.50;96715.78;5094173;28;20044;-68
2021/08/13 03:46:40;;;;;;;16.52;12.32;;;;;;;20.05;77.50;96716.16;5094461;28;20040;-67
2021/08/13 03:49:07;;;;;;;17.77;12.23;;;;;;;20.05;77.85;96722.50;5094017;28;20491;-67
2021/08/13 03:51:34;;;;;;;14.65;11.70;;;;;;;20.05;77.92;96716.97;5094325;28;20044;-67
2021/08/13 03:54:00;;;;;;;15.30;12.35;;;;;;;20.07;77.98;96720.16;5094407;28;20040;-67
2021/08/13 03:56:27;;;;;;;15.63;11.88;;;;;;;20.08;77.66;96720.94;5093950;28;20048;-67
2021/08/13 03:58:53;;;;;;;16.02;12.40;;;;;;;20.12;77.81;96709.94;5094433;28;20043;-67
2021/08/13 04:01:20;;;;;;;16.35;11.45;;;;;;;20.11;77.18;96713.88;5093989;28;20048;-67
2021/08/13 04:03:47;;;;;;;17.15;12.13;;;;;;;20.13;77.45;96717.06;5094271;28;20040;-67
2021/08/13 04:06:14;;;;;;;12.50;11.13;;;;;;;20.14;76.59;96718.66;5093707;28;20048;-67
2021/08/13 04:08:40;;;;;;;15.27;10.65;;;;;;;20.20;77.07;96717.16;5092740;28;20055;-67
2021/08/13 04:11:07;;;;;;;13.88;10.73;;;;;;;20.27;76.07;96717.28;5093635;28;20045;-68
2021/08/13 04:13:34;;;;;;;13.02;10.65;;;;;;;20.27;75.65;96728.34;5094046;28;20048;-67
2021/08/13 04:16:00;;;;;;;12.13;10.05;;;;;;;20.24;74.77;96726.31;5094070;28;20139;-67
2021/08/13 04:18:27;;;;;;;15.00;10.20;;;;;;;20.17;75.08;96737.28;5093696;28;20051;-67
2021/08/13 04:20:54;;;;;;;15.02;9.55;;;;;;;20.11;75.21;96736.81;5093891;28;20044;-67
2021/08/13 04:23:21;;;;;;;15.40;8.90;;;;;;;20.08;74.97;96743.84;5093433;28;20040;-67
2021/08/13 04:25:47;;;;;;;12.63;9.35;;;;;;;20.08;75.16;96743.84;5093531;28;20040;-67
2021/08/13 04:28:14;;;;;;;11.32;8.77;;;;;;;20.13;74.99;96739.19;5093276;28;20051;-67
2021/08/13 04:30:40;;;;;;;12.60;8.52;;;;;;;20.13;74.94;96744.72;5093766;28;20051;-67
2021/08/13 04:33:08;;;;;;;11.88;8.45;;;;;;;20.12;74.52;96749.44;5093285;28;20047;-67
2021/08/13 04:35:34;;;;;;;11.05;8.50;;;;;;;20.13;74.74;96750.25;5093841;28;20048;-67
2021/08/13 04:38:03;;;;;;;12.50;8.98;;;;;;;20.17;74.43;96748.34;5092506;28;20043;-67
2021/08/13 04:40:29;;;;;;;10.60;8.13;;;;;;;20.22;73.91;96746.06;5093385;28;20055;-67
2021/08/13 04:42:56;;;;;;;11.85;8.60;;;;;;;20.29;73.77;96748.13;5093537;28;20047;-67
2021/08/13 04:45:22;;;;;;;10.57;8.10;;;;;;;20.35;73.56;96752.16;5092921;28;20052;-67
2021/08/13 04:47:48;;;;;;;14.30;8.32;;;;;;;20.39;73.07;96753.03;5093230;28;20048;-68
2021/08/13 04:50:15;;;;;;;10.90;7.85;;;;;;;20.46;73.00;96755.91;5092909;28;20043;-67
2021/08/13 04:52:43;;;;;;;14.02;8.45;;;;;;;20.55;72.83;96755.66;5093022;28;20040;-68
2021/08/13 04:55:11;;;;;;;11.02;8.15;;;;;;;20.61;72.42;96764.44;5092753;28;20055;-67
2021/08/13 04:57:38;;;;;;;10.80;8.18;;;;;;;20.64;72.17;96758.16;5091693;28;20043;-67
2021/08/13 05:00:06;;;;;;;14.68;8.07;;;;;;;20.71;72.29;96752.72;5092466;28;20047;-68
2021/08/13 05:02:32;;;;;;;11.88;8.40;;;;;;;20.77;71.86;96757.56;5093111;28;20048;-67
2021/08/13 05:04:59;;;;;;;9.45;7.88;;;;;;;20.83;72.79;96760.81;5093030;28;20055;-68
2021/08/13 05:07:26;;;;;;;11.27;7.70;;;;;;;20.88;72.22;96765.19;5092431;28;20044;-67
2021/08/13 05:09:52;;;;;;;11.73;7.82;;;;;;;20.93;72.63;96765.66;5092479;28;20383;-67
2021/08/13 05:12:20;;;;;;;12.15;8.27;;;;;;;20.99;72.47;96769.72;5092352;28;20059;-68
2021/08/13 05:14:47;;;;;;;9.90;8.20;;;;;;;21.04;72.05;96774.16;5092899;28;20044;-68
2021/08/13 05:17:13;;;;;;;9.80;8.07;;;;;;;21.15;72.09;96765.97;5092393;28;20048;-67
2021/08/13 05:19:39;;;;;;;10.65;7.97;;;;;;;21.19;72.15;96766.78;5092810;28;20062;-68
2021/08/13 05:22:06;;;;;;;10.88;7.65;;;;;;;21.24;70.95;96758.16;5091859;28;20040;-69
2021/08/13 05:24:32;;;;;;;11.52;8.07;;;;;;;21.27;70.76;96765.72;5092484;28;20048;-67
2021/08/13 05:26:59;;;;;;;9.32;7.57;;;;;;;21.29;70.27;96760.59;5092739;28;20055;-67
2021/08/13 05:29:26;;;;;;;10.02;7.75;;;;;;;21.34;70.98;96763.03;5091977;28;20044;-67
2021/08/13 05:31:53;;;;;;;9.20;7.57;;;;;;;21.38;70.84;96769.44;5092321;28;20044;-67
2021/08/13 05:34:19;;;;;;;12.23;7.65;;;;;;;21.43;71.17;96769.09;5091386;28;20051;-67
2021/08/13 05:36:46;;;;;;;13.63;7.95;;;;;;;21.50;71.25;96766.38;5092491;28;20046;-67
2021/08/13 05:39:12;;;;;;;10.80;8.43;;;;;;;21.57;71.08;96763.72;5091545;28;20131;-67
2021/08/13 05:41:39;;;;;;;11.68;8.32;;;;;;;21.62;70.93;96763.38;5092212;28;20044;-67
2021/08/13 05:44:05;;;;;;;11.57;8.52;;;;;;;21.68;70.48;96766.59;5091527;28;20044;-68
2021/08/13 05:46:33;;;;;;;11.63;7.95;;;;;;;21.72;69.94;96766.63;5092211;28;20046;-67
2021/08/13 05:49:00;;;;;;;12.43;8.35;;;;;;;21.77;70.04;96772.63;5092083;28;20040;-70
2021/08/13 05:51:27;;;;;;;12.43;7.93;;;;;;;21.77;69.32;96782.91;5091911;28;20047;-69
2021/08/13 05:53:53;;;;;;;11.55;7.88;;;;;;;21.82;70.45;96793.66;5092332;28;20040;-70
2021/08/13 05:56:20;;;;;;;12.52;8.30;;;;;;;21.87;70.04;96796.06;5091782;28;20052;-70
2021/08/13 05:58:46;;;;;;;12.07;7.63;;;;;;;21.90;70.63;96806.41;5091635;28;20044;-69
2021/08/13 06:01:13;;;;;;;13.20;8.10;;;;;;;21.95;69.85;96808.84;5088558;28;20499;-69
2021/08/13 06:03:41;;;;;;;16.70;8.35;;;;;;;21.95;70.12;96814.38;5089306;28;20056;-69
2021/08/13 06:06:08;;;;;;;11.57;7.85;;;;;;;21.97;69.04;96809.25;5088355;28;20093;-70
2021/08/13 06:08:35;;;;;;;15.60;8.68;;;;;;;21.94;68.77;96814.78;5088936;28;20518;-69
2021/08/13 06:11:01;;;;;;;12.10;7.85;;;;;;;21.96;70.01;96818.75;5088500;28;20046;-70
2021/08/13 06:13:28;;;;;;;10.82;7.60;;;;;;;21.96;69.63;96829.84;5088535;28;20044;-70
2021/08/13 06:15:55;;;;;;;13.82;7.97;;;;;;;22.02;70.35;96831.09;5088199;28;20043;-69
2021/08/13 06:18:22;;;;;;;14.50;8.05;;;;;;;22.07;70.02;96839.06;5088527;28;20683;-70
2021/08/13 06:20:49;;;;;;;15.02;8.13;;;;;;;22.14;69.63;96830.84;5088614;28;20450;-69
2021/08/13 06:23:16;;;;;;;12.95;8.65;;;;;;;22.16;68.88;96833.22;5087780;28;20048;-70
2021/08/13 06:25:43;;;;;;;14.02;8.57;;;;;;;22.11;68.72;96828.84;5086685;28;20126;-70
2021/08/13 06:28:09;;;;;;;13.32;8.07;;;;;;;22.10;69.05;96816.16;5087736;28;20048;-70
2021/08/13 06:30:36;;;;;;;11.57;8.30;;;;;;;22.19;69.21;96806.72;5087132;28;20040;-69
2021/08/13 06:33:02;;;;;;;10.98;8.50;;;;;;;22.25;68.95;96805.19;5087590;28;20048;-71
2021/08/13 06:35:29;;;;;;;15.55;7.95;;;;;;;22.26;68.47;96810.34;5087936;28;20055;-71
2021/08/13 06:37:58;;;;;;;11.95;7.70;;;;;;;22.29;68.44;96811.53;5088432;28;20047;-69
2021/08/13 06:40:25;;;;;;;12.75;7.93;;;;;;;22.31;68.23;96817.53;5087482;28;20054;-69
2021/08/13 06:42:53;;;;;;;13.23;7.32;;;;;;;22.33;68.20;96823.47;5087942;28;20048;-69
2021/08/13 06:45:23;;;;;;;14.95;8.25;;;;;;;22.34;67.88;96827.84;5087281;28;20044;-70
2021/08/13 06:47:49;;;;;;;9.93;8.15;;;;;;;22.37;68.76;96825.09;5088270;28;20047;-69
2021/08/13 06:50:16;;;;;;;11.70;7.80;;;;;;;22.46;68.84;96819.25;5087259;28;20044;-70
2021/08/13 06:52:43;;;;;;;14.20;8.43;;;;;;;22.52;69.30;96820.47;5087494;28;20040;-69
2021/08/13 06:55:12;;;;;;;13.93;8.30;;;;;;;22.60;69.73;96833.22;5087485;28;20047;-69
2021/08/13 06:57:39;;;;;;;12.43;8.32;;;;;;;22.69;69.07;96852.31;5087789;28;20044;-69
2021/08/13 07:00:07;;;;;;;12.57;7.80;;;;;;;22.80;67.95;96860.72;5089214;28;20040;-71
2021/08/13 07:02:33;;;;;;;11.45;8.43;;;;;;;22.85;67.60;96861.16;5087404;28;20044;-71
2021/08/13 07:05:00;;;;;;;12.63;8.10;;;;;;;22.95;67.81;96865.22;5089807;28;20040;-72
2021/08/13 07:07:26;;;;;;;11.25;8.05;;;;;;;23.03;68.91;96871.63;5089364;28;20048;-72
2021/08/13 07:09:54;;;;;;;11.88;8.15;;;;;;;23.12;69.27;96872.06;5083107;28;20047;-71
